createdAt,value
2019-06-20T00:01:26.209Z,100751.32
2019-06-20T00:03:53.208Z,100747.73
2019-06-20T00:06:20.212Z,100749.95
2019-06-20T00:08:47.190Z,100751.28
2019-06-20T00:11:14.177Z,100751.74
2019-06-20T00:13:41.209Z,100746.81
2019-06-20T00:16:08.188Z,100748.61
2019-06-20T00:18:35.238Z,100750.87
2019-06-20T00:21:02.244Z,100745.98
2019-06-20T00:23:29.226Z,100749.06
2019-06-20T00:25:56.246Z,100745.48
2019-06-20T00:28:23.242Z,100754.41
2019-06-20T00:30:50.229Z,100753.50
2019-06-20T00:33:17.184Z,100762.39
2019-06-20T00:35:44.208Z,100764.61
2019-06-20T00:38:11.184Z,100762.44
2019-06-20T00:40:38.163Z,100766.08
2019-06-20T00:43:16.971Z,100768.80
2019-06-20T00:45:34.202Z,100767.12
2019-06-20T00:48:01.228Z,100770.37
2019-06-20T00:50:28.288Z,100762.15
2019-06-20T00:52:55.247Z,100768.80
2019-06-20T00:55:22.394Z,100769.41
2019-06-20T00:57:49.343Z,100762.37
2019-06-20T01:00:17.514Z,100760.30
2019-06-20T01:02:44.497Z,100763.36
2019-06-20T01:05:11.759Z,100764.27
2019-06-20T01:07:38.707Z,100761.20
2019-06-20T01:10:06.335Z,100766.53
2019-06-20T01:12:33.290Z,100759.84
2019-06-20T01:15:00.230Z,100762.51
2019-06-20T01:17:27.196Z,100763.89
2019-06-20T01:19:54.260Z,100768.38
2019-06-20T01:22:21.224Z,100766.16
2019-06-20T01:24:48.224Z,100764.80
2019-06-20T01:27:15.174Z,100759.45
2019-06-20T01:29:42.239Z,100757.24
2019-06-20T01:32:10.704Z,100760.38
2019-06-20T01:34:37.685Z,100769.69
2019-06-20T01:37:04.638Z,100765.23
2019-06-20T01:39:33.888Z,100760.74
2019-06-20T01:42:00.859Z,100769.20
2019-06-20T01:44:27.865Z,100766.11
2019-06-20T01:46:55.955Z,100766.54
2019-06-20T01:49:22.954Z,100771.00
2019-06-20T01:51:49.944Z,100767.84
2019-06-20T01:54:16.932Z,100771.48
2019-06-20T01:56:43.934Z,100771.45
2019-06-20T01:59:10.935Z,100774.59
2019-06-20T02:01:37.966Z,100786.16
2019-06-20T02:04:04.975Z,100783.91
2019-06-20T02:06:31.969Z,100786.19
2019-06-20T02:08:58.978Z,100780.88
2019-06-20T02:11:26.000Z,100772.39
2019-06-20T02:14:06.479Z,100769.33
2019-06-20T02:16:21.887Z,100768.87
2019-06-20T02:18:48.958Z,100765.37
2019-06-20T02:21:15.956Z,100763.13
2019-06-20T02:23:42.927Z,100768.48
2019-06-20T02:26:09.945Z,100774.67
2019-06-20T02:28:36.915Z,100768.45
2019-06-20T02:31:04.015Z,100764.48
2019-06-20T02:33:31.021Z,100774.72
2019-06-20T02:35:57.981Z,100776.06
2019-06-20T02:38:24.972Z,100778.31
2019-06-20T02:40:51.950Z,100779.17
2019-06-20T02:43:18.934Z,100774.75
2019-06-20T02:45:46.026Z,100777.86
2019-06-20T02:48:13.028Z,100772.53
2019-06-20T02:50:40.045Z,100775.23
2019-06-20T02:53:07.107Z,100782.79
2019-06-20T02:55:34.087Z,100777.01
2019-06-20T02:58:01.082Z,100781.48
2019-06-20T03:00:41.744Z,100787.72
2019-06-20T03:03:08.742Z,100787.72
2019-06-20T03:05:35.696Z,100784.62
2019-06-20T03:08:02.828Z,100794.46
2019-06-20T03:10:32.853Z,100799.34
2019-06-20T03:12:59.871Z,100799.80
2019-06-20T03:15:26.842Z,100792.70
2019-06-20T03:17:53.868Z,100799.80
2019-06-20T03:20:20.866Z,100796.25
2019-06-20T03:22:47.868Z,100801.58
2019-06-20T03:25:16.814Z,100797.58
2019-06-20T03:27:43.835Z,100802.03
2019-06-20T03:30:10.992Z,100801.14
2019-06-20T03:32:37.973Z,100802.93
2019-06-20T03:35:05.105Z,100801.59
2019-06-20T03:37:32.074Z,100810.02
2019-06-20T03:39:59.060Z,100811.34
2019-06-20T03:42:26.028Z,100813.14
2019-06-20T03:45:02.267Z,100810.91
2019-06-20T03:47:21.946Z,100812.71
2019-06-20T03:49:48.882Z,100809.16
2019-06-20T03:52:15.909Z,100814.92
2019-06-20T03:54:42.957Z,100814.02
2019-06-20T03:57:09.979Z,100813.14
2019-06-20T03:59:36.947Z,100810.92
2019-06-20T04:02:03.908Z,100817.14
2019-06-20T04:04:30.869Z,100825.58
2019-06-20T04:06:57.855Z,100822.91
2019-06-20T04:09:24.857Z,100822.48
2019-06-20T04:11:51.884Z,100822.02
2019-06-20T04:14:18.914Z,100823.80
2019-06-20T04:16:48.911Z,100830.48
2019-06-20T04:19:15.959Z,100830.90
2019-06-20T04:21:42.974Z,100833.14
2019-06-20T04:24:09.939Z,100836.70
2019-06-20T04:26:38.190Z,100835.34
2019-06-20T04:29:05.221Z,100840.24
2019-06-20T04:31:32.229Z,100839.36
2019-06-20T04:33:59.192Z,100850.45
2019-06-20T04:36:26.241Z,100849.10
2019-06-20T04:38:53.203Z,100850.02
2019-06-20T04:41:20.172Z,100856.23
2019-06-20T04:43:47.173Z,100866.89
2019-06-20T04:46:25.672Z,100868.67
2019-06-20T04:48:53.042Z,100864.22
2019-06-20T04:51:20.034Z,100862.43
2019-06-20T04:53:47.010Z,100860.66
2019-06-20T04:56:13.984Z,100869.52
2019-06-20T04:58:40.988Z,100865.56
2019-06-20T05:01:10.100Z,100867.78
2019-06-20T05:03:37.032Z,100877.97
2019-06-20T05:06:04.048Z,100880.20
2019-06-20T05:08:31.001Z,100892.20
2019-06-20T05:10:57.972Z,100892.20
2019-06-20T05:13:24.977Z,100895.30
2019-06-20T05:15:53.403Z,100897.53
2019-06-20T05:18:20.531Z,100895.76
2019-06-20T05:20:47.549Z,100896.64
2019-06-20T05:23:14.604Z,100894.42
2019-06-20T05:25:41.647Z,100897.98
2019-06-20T05:28:08.634Z,100901.09
2019-06-20T05:30:35.637Z,100912.19
2019-06-20T05:33:02.629Z,100903.77
2019-06-20T05:35:30.856Z,100909.97
2019-06-20T05:37:57.876Z,100902.85
2019-06-20T05:40:24.852Z,100906.41
2019-06-20T05:42:52.051Z,100914.39
2019-06-20T05:45:19.364Z,100916.16
2019-06-20T05:47:46.332Z,100916.16
2019-06-20T05:50:13.397Z,100910.84
2019-06-20T05:52:40.396Z,100916.62
2019-06-20T05:55:07.521Z,100925.06
2019-06-20T05:57:36.847Z,100933.08
2019-06-20T06:00:04.977Z,100927.28
2019-06-20T06:02:31.911Z,100929.95
2019-06-20T06:04:58.884Z,100930.39
2019-06-20T06:07:25.860Z,100930.84
2019-06-20T06:09:52.858Z,100937.95
2019-06-20T06:12:22.582Z,100937.52
2019-06-20T06:14:49.587Z,100941.08
2019-06-20T06:17:16.552Z,100935.29
2019-06-20T06:19:46.486Z,100931.74
2019-06-20T06:22:14.012Z,100938.40
2019-06-20T06:24:41.015Z,100936.20
2019-06-20T06:27:07.994Z,100942.41
2019-06-20T06:29:35.024Z,100942.86
2019-06-20T06:32:02.067Z,100936.17
2019-06-20T06:34:29.074Z,100945.08
2019-06-20T06:36:56.081Z,100949.50
2019-06-20T06:39:23.130Z,100952.63
2019-06-20T06:41:50.135Z,100956.62
2019-06-20T06:44:17.103Z,100963.72
2019-06-20T06:46:52.113Z,100969.52
2019-06-20T06:49:12.970Z,100966.39
2019-06-20T06:51:39.915Z,100965.50
2019-06-20T06:54:07.021Z,100970.40
2019-06-20T06:56:34.011Z,100976.16
2019-06-20T06:59:01.005Z,100976.16
2019-06-20T07:01:28.016Z,100981.52
2019-06-20T07:03:55.357Z,100982.41
2019-06-20T07:06:22.344Z,100979.28
2019-06-20T07:08:49.336Z,100980.16
2019-06-20T07:11:16.309Z,100985.52
2019-06-20T07:13:43.302Z,100982.84
2019-06-20T07:16:10.362Z,100980.17
2019-06-20T07:18:40.352Z,100983.72
2019-06-20T07:21:07.386Z,100985.94
2019-06-20T07:23:34.371Z,100989.05
2019-06-20T07:26:03.489Z,100989.94
2019-06-20T07:28:30.500Z,101001.07
2019-06-20T07:30:57.486Z,101009.52
2019-06-20T07:33:24.473Z,101006.39
2019-06-20T07:35:51.460Z,101014.39
2019-06-20T07:38:18.496Z,101015.27
2019-06-20T07:40:45.544Z,101013.45
2019-06-20T07:43:12.517Z,101005.48
2019-06-20T07:45:39.523Z,101008.13
2019-06-20T07:48:06.493Z,101007.22
2019-06-20T07:50:33.513Z,101004.97
2019-06-20T07:53:03.360Z,101000.92
2019-06-20T07:55:33.670Z,100997.81
2019-06-20T07:58:00.675Z,100993.79
2019-06-20T08:00:28.143Z,101000.89
2019-06-20T08:02:56.251Z,101005.79
2019-06-20T08:05:23.204Z,100997.70
2019-06-20T08:07:50.282Z,100999.00
2019-06-20T08:10:17.508Z,101001.25
2019-06-20T08:12:44.559Z,100997.22
2019-06-20T08:15:15.554Z,100996.33
2019-06-20T08:17:42.690Z,100993.66
2019-06-20T08:20:10.640Z,100990.97
2019-06-20T08:22:39.984Z,100993.97
2019-06-20T08:25:08.634Z,100999.80
2019-06-20T08:27:51.307Z,100996.64
2019-06-20T08:30:24.251Z,100997.55
2019-06-20T08:32:51.314Z,100995.84
2019-06-20T08:35:21.250Z,101000.66
2019-06-20T08:37:48.282Z,101001.99
2019-06-20T08:40:15.585Z,101008.65
2019-06-20T08:42:52.032Z,101007.74
2019-06-20T08:45:22.635Z,101011.38
2019-06-20T08:47:49.670Z,101013.09
2019-06-20T08:50:16.773Z,101014.83
2019-06-20T08:52:43.817Z,101016.20
2019-06-20T08:55:11.526Z,101016.62
2019-06-20T08:57:38.506Z,101019.34
2019-06-20T09:02:33.055Z,101022.49
2019-06-20T09:05:00.258Z,101029.61
2019-06-20T09:07:27.356Z,101034.98
2019-06-20T09:09:55.822Z,101030.52
2019-06-20T09:12:22.965Z,101037.72
2019-06-20T09:14:49.972Z,101032.28
2019-06-20T09:17:20.896Z,101035.31
2019-06-20T09:19:47.920Z,101039.78
2019-06-20T09:22:14.926Z,101040.53
2019-06-20T09:24:42.120Z,101045.88
2019-06-20T09:27:09.119Z,101047.19
2019-06-20T09:29:41.801Z,101054.39
2019-06-20T09:32:05.024Z,101055.70
2019-06-20T09:34:32.010Z,101055.34
2019-06-20T09:36:59.424Z,101055.30
2019-06-20T09:39:26.471Z,101065.06
2019-06-20T09:41:54.510Z,101058.80
2019-06-20T09:44:21.497Z,101059.17
2019-06-20T09:46:50.655Z,101056.41
2019-06-20T09:49:17.397Z,101059.51
2019-06-20T09:51:45.610Z,101058.49
2019-06-20T09:54:12.597Z,101052.16
2019-06-20T09:56:39.572Z,101056.55
2019-06-20T09:59:06.615Z,101057.43
2019-06-20T10:01:42.687Z,101063.59
2019-06-20T10:04:09.645Z,101063.13
2019-06-20T10:06:37.453Z,101064.97
2019-06-20T10:09:06.116Z,101068.45
2019-06-20T10:11:33.112Z,101068.45
2019-06-20T10:14:00.079Z,101075.14
2019-06-20T10:16:27.060Z,101070.21
2019-06-20T10:18:54.373Z,101073.42
2019-06-20T10:21:21.434Z,101076.14
2019-06-20T10:23:49.612Z,101074.80
2019-06-20T10:26:16.700Z,101075.22
2019-06-20T10:28:47.654Z,101077.90
2019-06-20T10:31:15.483Z,101080.19
2019-06-20T10:33:42.463Z,101080.69
2019-06-20T10:36:09.446Z,101085.13
2019-06-20T10:38:36.415Z,101090.19
2019-06-20T10:41:03.381Z,101089.73
2019-06-20T10:43:30.374Z,101097.42
2019-06-20T10:45:57.333Z,101096.12
2019-06-20T10:48:26.350Z,101099.73
2019-06-20T10:50:55.957Z,101103.44
2019-06-20T10:53:22.924Z,101101.28
2019-06-20T10:55:51.100Z,101100.48
2019-06-20T10:58:18.227Z,101104.42
2019-06-20T11:00:46.153Z,101104.01
2019-06-20T11:03:13.220Z,101101.83
2019-06-20T11:05:42.316Z,101102.72
2019-06-20T11:08:10.444Z,101104.50
2019-06-20T11:10:38.677Z,101111.27
2019-06-20T11:13:06.948Z,101105.93
2019-06-20T11:15:34.006Z,101115.30
2019-06-20T11:18:03.850Z,101104.60
2019-06-20T11:20:30.968Z,101107.66
2019-06-20T11:22:58.022Z,101114.38
2019-06-20T11:25:24.976Z,101110.38
2019-06-20T11:27:51.961Z,101120.20
2019-06-20T11:30:19.287Z,101117.52
2019-06-20T11:32:49.009Z,101116.18
2019-06-20T11:35:16.393Z,101118.42
2019-06-20T11:37:44.720Z,101117.10
2019-06-20T11:40:12.379Z,101123.75
2019-06-20T11:42:44.628Z,101116.61
2019-06-20T11:45:12.241Z,101109.94
2019-06-20T11:47:40.392Z,101116.18
2019-06-20T11:50:09.368Z,101118.41
2019-06-20T11:52:41.043Z,101111.73
2019-06-20T11:55:06.472Z,101111.28
2019-06-20T11:57:33.441Z,101126.47
2019-06-20T12:00:00.446Z,101138.51
2019-06-20T12:02:27.422Z,101135.83
2019-06-20T12:04:54.376Z,101135.39
2019-06-20T12:07:21.351Z,101147.83
2019-06-20T12:09:49.161Z,101148.75
2019-06-20T12:12:16.214Z,101142.96
2019-06-20T12:14:44.269Z,101137.08
2019-06-20T12:17:11.355Z,101139.23
2019-06-20T12:19:39.797Z,101142.36
2019-06-20T12:22:07.302Z,101148.56
2019-06-20T12:24:34.273Z,101142.39
2019-06-20T12:27:03.843Z,101150.34
2019-06-20T12:29:30.816Z,101151.69
2019-06-20T12:31:59.154Z,101148.56
2019-06-20T12:34:26.188Z,101152.14
2019-06-20T12:36:53.182Z,101164.56
2019-06-20T12:39:20.176Z,101169.98
2019-06-20T12:41:50.285Z,101188.59
2019-06-20T12:44:17.374Z,101182.37
2019-06-20T12:46:44.817Z,101182.70
2019-06-20T12:49:11.929Z,101174.27
2019-06-20T12:51:40.399Z,101181.36
2019-06-20T12:54:07.485Z,101174.75
2019-06-20T12:56:34.516Z,101178.74
2019-06-20T12:59:01.533Z,101192.10
2019-06-20T13:01:36.848Z,101186.84
2019-06-20T13:03:57.440Z,101193.97
2019-06-20T13:06:24.442Z,101191.30
2019-06-20T13:08:51.470Z,101197.52
2019-06-20T13:11:18.460Z,101200.98
2019-06-20T13:13:46.581Z,101190.37
2019-06-20T13:16:13.680Z,101187.66
2019-06-20T13:18:41.412Z,101179.66
2019-06-20T13:21:09.718Z,101178.33
2019-06-20T13:23:36.704Z,101177.48
2019-06-20T13:26:03.736Z,101179.73
2019-06-20T13:28:31.783Z,101185.51
2019-06-20T13:30:58.772Z,101189.06
2019-06-20T13:33:25.758Z,101189.45
2019-06-20T13:35:52.812Z,101189.84
2019-06-20T13:38:19.810Z,101187.25
2019-06-20T13:40:47.227Z,101188.58
2019-06-20T13:43:14.416Z,101189.05
2019-06-20T13:45:42.346Z,101187.28
2019-06-20T13:48:09.353Z,101185.91
2019-06-20T13:50:40.421Z,101185.05
2019-06-20T13:53:07.948Z,101191.77
2019-06-20T13:55:34.980Z,101193.59
2019-06-20T13:58:02.080Z,101200.23
2019-06-20T14:00:29.568Z,101203.84
2019-06-20T14:02:56.579Z,101205.55
2019-06-20T14:05:28.267Z,101206.55
2019-06-20T14:07:58.248Z,101201.12
2019-06-20T14:10:29.746Z,101209.22
2019-06-20T14:12:56.738Z,101201.14
2019-06-20T14:15:23.776Z,101197.21
2019-06-20T14:17:50.886Z,101204.80
2019-06-20T14:20:19.411Z,101210.57
2019-06-20T14:22:46.446Z,101209.20
2019-06-20T14:25:14.048Z,101208.68
2019-06-20T14:27:42.338Z,101214.03
2019-06-20T14:30:12.642Z,101216.34
2019-06-20T14:32:39.670Z,101220.34
2019-06-20T14:35:07.207Z,101229.68
2019-06-20T14:37:34.278Z,101231.34
2019-06-20T14:40:06.105Z,101228.70
2019-06-20T14:42:33.114Z,101235.05
2019-06-20T14:45:00.095Z,101244.39
2019-06-20T14:47:27.078Z,101241.72
2019-06-20T14:49:54.093Z,101239.48
2019-06-20T14:52:21.073Z,101243.42
2019-06-20T14:54:51.706Z,101249.64
2019-06-20T14:57:20.650Z,101251.02
2019-06-20T14:59:48.388Z,101258.00
2019-06-20T15:02:16.515Z,101263.31
2019-06-20T15:04:44.973Z,101262.88
2019-06-20T15:07:12.622Z,101261.03
2019-06-20T15:09:39.712Z,101264.22
2019-06-20T15:12:06.705Z,101263.81
2019-06-20T15:14:36.678Z,101267.37
2019-06-20T15:17:03.680Z,101270.06
2019-06-20T15:19:30.669Z,101278.99
2019-06-20T15:21:57.870Z,101268.67
2019-06-20T15:24:24.886Z,101285.58
2019-06-20T15:26:52.429Z,101286.02
2019-06-20T15:29:19.747Z,101284.69
2019-06-20T15:31:47.688Z,101283.82
2019-06-20T15:34:15.960Z,101290.13
2019-06-20T15:36:48.154Z,101293.64
2019-06-20T15:39:15.760Z,101296.74
2019-06-20T15:41:42.732Z,101298.93
2019-06-20T15:44:09.744Z,101306.10
2019-06-20T15:46:36.717Z,101304.31
2019-06-20T15:49:15.623Z,101306.52
2019-06-20T15:51:32.624Z,101304.77
2019-06-20T15:53:59.670Z,101308.29
2019-06-20T15:56:26.670Z,101308.72
2019-06-20T15:58:53.679Z,101311.39
2019-06-20T16:01:22.154Z,101303.41
2019-06-20T16:03:49.145Z,101303.49
2019-06-20T16:06:16.133Z,101314.22
2019-06-20T16:08:46.865Z,101314.25
2019-06-20T16:11:13.924Z,101323.56
2019-06-20T16:13:40.910Z,101325.80
2019-06-20T16:16:07.937Z,101327.56
2019-06-20T16:18:34.928Z,101322.58
2019-06-20T16:21:03.711Z,101328.46
2019-06-20T16:23:30.747Z,101334.69
2019-06-20T16:25:58.887Z,101327.98
2019-06-20T16:28:25.887Z,101331.56
2019-06-20T16:31:08.005Z,101332.47
2019-06-20T16:33:25.395Z,101322.65
2019-06-20T16:35:50.706Z,101330.22
2019-06-20T16:38:17.675Z,101323.06
2019-06-20T16:40:45.798Z,101322.06
2019-06-20T16:43:12.779Z,101317.20
2019-06-20T16:45:39.821Z,101315.12
2019-06-20T16:48:06.837Z,101317.30
2019-06-20T16:50:33.825Z,101313.30
2019-06-20T16:53:08.243Z,101311.48
2019-06-20T16:55:35.255Z,101317.29
2019-06-20T16:58:02.302Z,101310.59
2019-06-20T17:00:34.171Z,101318.48
2019-06-20T17:03:01.253Z,101322.90
2019-06-20T17:05:29.415Z,101322.05
2019-06-20T17:07:56.566Z,101326.92
2019-06-20T17:10:23.638Z,101320.73
2019-06-20T17:12:50.719Z,101318.89
2019-06-20T17:15:17.896Z,101321.47
2019-06-20T17:17:44.971Z,101321.09
2019-06-20T17:20:13.576Z,101324.27
2019-06-20T17:22:45.869Z,101328.25
2019-06-20T17:25:13.776Z,101324.29
2019-06-20T17:27:40.842Z,101329.16
2019-06-20T17:30:09.832Z,101332.28
2019-06-20T17:32:36.860Z,101336.70
2019-06-20T17:35:06.611Z,101337.53
2019-06-20T17:37:33.601Z,101334.81
2019-06-20T17:40:00.580Z,101333.11
2019-06-20T17:42:30.648Z,101333.58
2019-06-20T17:45:01.649Z,101344.59
2019-06-20T17:47:28.612Z,101343.61
2019-06-20T17:49:58.025Z,101344.10
2019-06-20T17:52:26.304Z,101344.12
2019-06-20T17:54:53.333Z,101345.87
2019-06-20T17:57:20.324Z,101357.39
2019-06-20T17:59:47.304Z,101350.34
2019-06-20T18:02:17.073Z,101349.91
2019-06-20T18:04:44.075Z,101349.00
2019-06-20T18:07:11.096Z,101352.95
2019-06-20T18:09:41.171Z,101356.54
2019-06-20T18:12:12.731Z,101363.64
2019-06-20T18:14:39.720Z,101363.63
2019-06-20T18:17:08.751Z,101363.63
2019-06-20T18:19:40.739Z,101374.33
2019-06-20T18:22:09.210Z,101367.67
2019-06-20T18:24:36.226Z,101372.44
2019-06-20T18:27:03.507Z,101371.94
2019-06-20T18:29:31.714Z,101372.89
2019-06-20T18:31:58.693Z,101380.95
2019-06-20T18:34:30.216Z,101386.73
2019-06-20T18:36:56.028Z,101388.07
2019-06-20T18:39:23.015Z,101392.94
2019-06-20T18:41:53.440Z,101398.25
2019-06-20T18:44:20.494Z,101401.81
2019-06-20T18:46:47.469Z,101407.09
2019-06-20T18:49:14.509Z,101411.58
2019-06-20T18:51:41.545Z,101408.05
2019-06-20T18:54:08.543Z,101413.41
2019-06-20T18:56:35.536Z,101416.83
2019-06-20T18:59:02.553Z,101419.94
2019-06-20T19:01:31.901Z,101414.23
2019-06-20T19:04:02.753Z,101422.20
2019-06-20T19:06:35.845Z,101423.52
2019-06-20T19:08:58.617Z,101429.81
2019-06-20T19:11:29.334Z,101428.05
2019-06-20T19:13:57.427Z,101427.59
2019-06-20T19:16:24.429Z,101434.15
2019-06-20T19:18:51.413Z,101439.55
2019-06-20T19:21:18.487Z,101449.77
2019-06-20T19:23:46.326Z,101444.91
2019-06-20T19:26:13.299Z,101449.80
2019-06-20T19:28:40.306Z,101450.67
2019-06-20T19:31:07.363Z,101452.05
2019-06-20T19:33:34.334Z,101456.95
2019-06-20T19:36:01.347Z,101459.18
2019-06-20T19:38:48.313Z,101467.20
2019-06-20T19:41:15.342Z,101463.20
2019-06-20T19:43:42.361Z,101468.56
2019-06-20T19:46:09.349Z,101466.77
2019-06-20T19:48:36.953Z,101471.69
2019-06-20T19:51:04.425Z,101474.78
2019-06-20T19:53:31.764Z,101475.59
2019-06-20T19:55:58.714Z,101478.69
2019-06-20T19:58:25.741Z,101480.86
2019-06-20T20:00:52.747Z,101479.95
2019-06-20T20:03:21.669Z,101477.30
2019-06-20T20:05:48.684Z,101482.62
2019-06-20T20:08:18.333Z,101483.95
2019-06-20T20:10:49.138Z,101484.42
2019-06-20T20:13:16.293Z,101496.00
2019-06-20T20:15:46.203Z,101498.19
2019-06-20T20:18:13.872Z,101496.42
2019-06-20T20:20:42.810Z,101491.53
2019-06-20T20:23:09.861Z,101492.39
2019-06-20T20:25:36.887Z,101489.73
2019-06-20T20:28:04.012Z,101497.26
2019-06-20T20:30:31.031Z,101497.20
2019-06-20T20:32:58.027Z,101492.33
2019-06-20T20:35:35.431Z,101491.86
2019-06-20T20:38:01.569Z,101497.19
2019-06-20T20:40:28.772Z,101501.58
2019-06-20T20:42:55.749Z,101497.55
2019-06-20T20:45:24.712Z,101496.20
2019-06-20T20:47:51.699Z,101512.63
2019-06-20T20:50:19.104Z,101509.05
2019-06-20T20:52:46.364Z,101501.50
2019-06-20T20:55:19.336Z,101511.22
2019-06-20T20:57:46.374Z,101508.94
2019-06-20T21:00:24.032Z,101510.69
2019-06-20T21:02:51.215Z,101515.09
2019-06-20T21:05:24.297Z,101518.63
2019-06-20T21:07:51.667Z,101522.11
2019-06-20T21:10:18.652Z,101529.19
2019-06-20T21:12:50.121Z,101526.47
2019-06-20T21:15:21.752Z,101532.20
2019-06-20T21:17:48.721Z,101529.04
2019-06-20T21:20:16.170Z,101527.23
2019-06-20T21:22:46.118Z,101522.32
2019-06-20T21:25:15.851Z,101524.95
2019-06-20T21:27:42.858Z,101533.80
2019-06-20T21:30:10.665Z,101531.06
2019-06-20T21:32:37.656Z,101528.34
2019-06-20T21:35:05.152Z,101530.53
2019-06-20T21:37:32.161Z,101534.48
2019-06-20T21:40:01.936Z,101532.64
2019-06-20T21:42:28.885Z,101537.02
2019-06-20T21:44:55.858Z,101536.50
2019-06-20T21:47:22.894Z,101536.91
2019-06-20T21:49:53.150Z,101536.87
2019-06-20T21:52:20.170Z,101535.91
2019-06-20T21:54:47.162Z,101537.17
2019-06-20T21:57:14.162Z,101539.79
2019-06-20T21:59:41.154Z,101538.38
2019-06-20T22:02:08.353Z,101549.88
2019-06-20T22:04:35.328Z,101546.22
2019-06-20T22:07:02.423Z,101541.30
2019-06-20T22:09:29.400Z,101544.36
2019-06-20T22:11:56.366Z,101539.41
2019-06-20T22:14:23.365Z,101544.69
2019-06-20T22:16:52.749Z,101548.56
2019-06-20T22:19:19.734Z,101547.23
2019-06-20T22:21:46.720Z,101548.52
2019-06-20T22:24:13.704Z,101546.22
2019-06-20T22:26:40.723Z,101546.48
2019-06-20T22:29:07.708Z,101550.79
2019-06-20T22:31:34.676Z,101549.77
2019-06-20T22:34:01.640Z,101549.73
2019-06-20T22:36:39.672Z,101551.41
2019-06-20T22:39:00.595Z,101553.92
2019-06-20T22:41:30.521Z,101559.14
2019-06-20T22:43:57.504Z,101556.88
2019-06-20T22:46:24.460Z,101558.61
2019-06-20T22:48:55.293Z,101554.13
2019-06-20T22:51:22.330Z,101560.28
2019-06-20T22:53:49.289Z,101565.98
2019-06-20T22:56:19.035Z,101553.09
2019-06-20T22:58:46.023Z,101557.05
2019-06-20T23:01:13.008Z,101556.16
2019-06-20T23:03:39.994Z,101550.79
2019-06-20T23:06:09.081Z,101555.17
2019-06-20T23:08:36.273Z,101551.09
2019-06-20T23:11:03.380Z,101552.78
2019-06-20T23:13:30.397Z,101556.27
2019-06-20T23:15:57.378Z,101552.17
2019-06-20T23:18:24.349Z,101555.56
2019-06-20T23:21:03.973Z,101555.03
2019-06-20T23:23:21.369Z,101553.64
2019-06-20T23:25:51.546Z,101553.19
2019-06-20T23:28:18.531Z,101550.05
2019-06-20T23:30:45.761Z,101562.43
2019-06-20T23:33:13.125Z,101555.25
2019-06-20T23:35:40.104Z,101549.84
2019-06-20T23:38:07.088Z,101553.77
2019-06-20T23:40:34.115Z,101556.85
2019-06-20T23:43:01.086Z,101560.84
2019-06-20T23:45:28.095Z,101559.46
2019-06-20T23:47:55.108Z,101556.76
2019-06-20T23:50:22.103Z,101558.92
2019-06-20T23:52:54.779Z,101556.25
2019-06-20T23:55:21.784Z,101552.55
2019-06-20T23:57:48.755Z,101553.92
